createdAt,value
2022-08-25T00:02:06.373Z,80
2022-08-25T00:07:47.092Z,54
2022-08-25T00:13:29.223Z,94
2022-08-25T00:24:52.868Z,76
2022-08-25T00:30:33.004Z,72
2022-08-25T00:36:13.282Z,86
2022-08-25T00:41:53.554Z,88
2022-08-25T00:47:34.107Z,80
2022-08-25T00:53:14.370Z,100
2022-08-25T01:04:34.945Z,100
2022-08-25T01:10:15.716Z,80
2022-08-25T01:15:57.079Z,104
2022-08-25T01:21:39.887Z,96
2022-08-25T01:27:20.356Z,100
2022-08-25T01:44:21.213Z,76
2022-08-25T01:50:01.300Z,120
2022-08-25T01:55:41.464Z,110
2022-08-25T02:01:22.577Z,96
2022-08-25T02:07:02.856Z,100
2022-08-25T02:12:42.833Z,110
2022-08-25T02:18:23.000Z,106
2022-08-25T02:24:03.058Z,102
2022-08-25T02:29:44.713Z,110
2022-08-25T02:35:24.931Z,82
2022-08-25T02:41:05.185Z,106
2022-08-25T02:46:45.352Z,104
2022-08-25T02:52:25.672Z,96
2022-08-25T02:58:07.507Z,98
2022-08-25T03:03:48.579Z,98
2022-08-25T03:09:29.805Z,106
2022-08-25T03:23:55.368Z,100
2022-08-25T03:29:35.659Z,104
2022-08-25T03:35:16.146Z,94
2022-08-25T03:40:56.311Z,110
2022-08-25T03:46:36.466Z,94
2022-08-25T03:52:16.668Z,94
2022-08-25T04:03:38.071Z,92
2022-08-25T04:09:18.481Z,106
2022-08-25T04:14:58.851Z,102
2022-08-25T04:20:47.405Z,106
2022-08-25T04:43:29.762Z,94
2022-08-25T04:49:10.296Z,100
2022-08-25T04:54:50.581Z,124
2022-08-25T05:00:30.888Z,98
2022-08-25T05:06:16.881Z,98
2022-08-25T05:11:57.710Z,100
2022-08-25T05:17:38.054Z,106
2022-08-25T05:23:18.150Z,98
2022-08-25T05:28:58.366Z,106
2022-08-25T05:34:44.055Z,102
2022-08-25T05:40:25.006Z,100
2022-08-25T05:46:06.311Z,94
2022-08-25T05:51:46.734Z,104
2022-08-25T05:57:27.631Z,72
2022-08-25T06:08:49.461Z,94
2022-08-25T06:14:30.016Z,78
2022-08-25T06:25:52.164Z,86
2022-08-25T06:31:34.136Z,80
2022-08-25T06:37:14.910Z,98
2022-08-25T06:42:55.241Z,96
2022-08-25T06:48:35.451Z,86
2022-08-25T06:54:16.232Z,86
2022-08-25T06:59:57.460Z,94
2022-08-25T07:05:44.728Z,80
2022-08-25T07:11:24.983Z,92
2022-08-25T07:17:13.099Z,92
2022-08-25T07:22:53.219Z,94
2022-08-25T07:28:35.517Z,92
2022-08-25T07:34:17.434Z,102
2022-08-25T07:39:58.663Z,90
2022-08-25T07:45:50.992Z,30
2022-08-25T07:51:32.384Z,24
2022-08-25T07:57:12.571Z,78
2022-08-25T08:02:55.024Z,30
2022-08-25T08:25:53.798Z,18
2022-08-25T08:31:37.342Z,26
2022-08-25T08:37:28.259Z,12
2022-08-25T08:43:42.891Z,26
2022-08-25T08:49:28.549Z,6
2022-08-25T08:55:13.355Z,12
2022-08-25T09:01:05.815Z,8
2022-08-25T09:07:10.321Z,6
2022-08-25T09:13:02.164Z,2
2022-08-25T09:19:10.050Z,6
2022-08-25T09:24:51.603Z,0
2022-08-25T09:42:01.163Z,2
2022-08-25T14:57:12.146Z,104
2022-08-25T15:03:03.113Z,92
2022-08-25T15:08:46.572Z,106
2022-08-25T15:20:50.987Z,104
2022-08-25T15:26:32.991Z,96
2022-08-25T15:32:15.382Z,114
2022-08-25T15:37:55.757Z,90
2022-08-25T15:43:39.444Z,92
2022-08-25T15:49:32.375Z,90
2022-08-25T15:55:12.847Z,100
2022-08-25T16:00:57.598Z,86
2022-08-25T16:06:45.473Z,106
2022-08-25T16:12:30.041Z,104
2022-08-25T16:18:10.366Z,90
2022-08-25T16:23:56.081Z,90
2022-08-25T16:29:41.828Z,84
2022-08-25T16:35:22.204Z,94
2022-08-25T16:41:09.641Z,98
2022-08-25T16:46:59.335Z,92
2022-08-25T16:52:45.777Z,102
2022-08-25T17:04:13.926Z,108
2022-08-25T17:09:53.935Z,98
2022-08-25T17:15:33.997Z,86
2022-08-25T17:21:36.263Z,90
2022-08-25T17:27:19.352Z,84
2022-08-25T17:33:03.869Z,90
2022-08-25T17:38:44.100Z,92
2022-08-25T17:44:24.463Z,94
2022-08-25T17:50:04.492Z,98
2022-08-25T17:55:50.804Z,90
2022-08-25T18:01:44.562Z,90
2022-08-25T18:07:28.843Z,100
2022-08-25T18:13:09.308Z,98
2022-08-25T18:18:49.327Z,86
2022-08-25T18:24:32.665Z,114
2022-08-25T18:52:23.052Z,86
2022-08-25T18:58:03.648Z,84
2022-08-25T19:03:48.265Z,94
2022-08-25T19:09:44.683Z,80
2022-08-25T19:15:25.596Z,80
2022-08-25T19:21:06.585Z,106
2022-08-25T19:26:46.889Z,88
2022-08-25T19:32:27.418Z,86
2022-08-25T19:38:36.318Z,82
2022-08-25T19:44:22.661Z,106
2022-08-25T19:50:03.266Z,110
2022-08-25T19:55:47.062Z,80
2022-08-25T20:01:31.923Z,90
2022-08-25T20:07:14.233Z,74
2022-08-25T20:12:54.890Z,94
2022-08-25T20:18:40.981Z,80
2022-08-25T20:35:47.093Z,88
2022-08-25T20:41:30.608Z,76
2022-08-25T20:47:13.432Z,90
2022-08-25T20:52:53.989Z,86
2022-08-25T20:58:36.942Z,90
2022-08-25T21:04:21.684Z,86
2022-08-25T21:10:04.662Z,78
2022-08-25T21:15:46.106Z,74
2022-08-25T21:21:28.638Z,96
2022-08-25T21:27:09.173Z,76
2022-08-25T21:32:54.456Z,78
2022-08-25T21:38:42.457Z,82
2022-08-25T21:44:32.490Z,92
2022-08-25T21:50:12.707Z,94
2022-08-25T21:55:56.809Z,84
2022-08-25T22:01:37.778Z,90
2022-08-25T22:07:18.070Z,72
2022-08-25T22:18:43.047Z,130
2022-08-25T22:24:29.462Z,86
2022-08-25T22:30:10.578Z,102
2022-08-25T22:36:00.623Z,114
2022-08-25T22:41:43.252Z,104
2022-08-25T22:47:26.894Z,98
2022-08-25T22:53:09.065Z,100
2022-08-25T22:58:53.639Z,120
2022-08-25T23:04:35.330Z,114
2022-08-25T23:10:17.314Z,122
2022-08-25T23:16:10.258Z,100
2022-08-25T23:21:57.882Z,130
2022-08-25T23:27:39.975Z,112
2022-08-25T23:33:20.762Z,110
2022-08-25T23:39:00.935Z,116
2022-08-25T23:44:41.317Z,122
